M/V MiSS Lillie — WDH5807 — position and weather

sailwx.info

Track history (hours):
 
Tides and Currents Weather Stations Pressure Air Temp Water Temp Dewpoint Dewpoint Depression Visibility Wind Speed Wind Dir Waves Ship Positions

M/V MiSS Lillie

Owner: Louisiana Marine Operators LLC., Broussard, LA. More information available from US FCC via Universal Licensing System and Coast Guard Vessel Documentation Center.

Last reported at 2017-Nov-14 11:32 UTC. Time now 2017-Nov-22 12:48 UTC.
Position N 29°34' W 090°29'.
Warning: this ship's position is 8 days out of date.

Length 24 m; draft 3 m.

Type: Towing. MMSI: 367631680.

Date/timePositionNaut miles runAvg speedWind from/ knotsBaromVisibWave heightAir tempDewpointWater temp
2017-Nov-14 11:32N 29°34' W 090°29'0 5.8
2017-Nov-14 11:30N 29°34' W 090°29'2 4.5
2017-Nov-14 11:00N 29°34' W 090°31'3 5.6
2017-Nov-14 10:30N 29°34' W 090°34'2 3.2
2017-Nov-14 10:00N 29°35' W 090°36'3 5.5
2017-Nov-14 09:30N 29°36' W 090°39'3 5.7
2017-Nov-14 09:01N 29°37' W 090°42'2 4.9
2017-Nov-14 08:31N 29°34' W 090°43'2 4.4
2017-Nov-14 08:00N 29°33' W 090°45'2 4.7
2017-Nov-14 07:30N 29°32' W 090°48'129 3.4
2017-Nov-12 17:38N 29°59' W 093°13'1 5.5
2017-Nov-12 17:27N 30°00' W 093°14'2 3.8
2017-Nov-12 16:59N 30°02' W 093°15'1 1.5
2017-Nov-12 16:30N 30°02' W 093°15'2 4.2
2017-Nov-12 15:59N 30°04' W 093°16'2 3.8
2017-Nov-12 15:29N 30°05' W 093°18'1 1.7
2017-Nov-12 14:59N 30°06' W 093°18'0 0.0
2017-Nov-12 14:27N 30°06' W 093°18'0 0.2
2017-Nov-12 13:55N 30°06' W 093°18'1 2.8
2017-Nov-12 13:27N 30°06' W 093°20'3 6.6
2017-Nov-12 12:59N 30°09' W 093°20'4 6.7
2017-Nov-12 12:27N 30°12' W 093°17'2 2.8
2017-Nov-12 11:53N 30°13' W 093°16'1 0.0
2017-Nov-10 16:23N 30°13' W 093°15'1 2.5
2017-Nov-10 16:00N 30°12' W 093°16'2 4.6
2017-Nov-10 15:30N 30°12' W 093°19'1 1.3
2017-Nov-10 15:01N 30°12' W 093°19'0 0.2
2017-Nov-10 14:30N 30°12' W 093°19'0 0.1
2017-Nov-10 14:00N 30°12' W 093°19'0 0.5
2017-Nov-10 13:30N 30°12' W 093°19'0 0.5
2017-Nov-10 13:00N 30°13' W 093°19'1 2.0
2017-Nov-10 12:30N 30°12' W 093°18'2 3.8
2017-Nov-10 12:00N 30°13' W 093°16'1 0.3
2017-Nov-10 09:44N 30°13' W 093°15'0 1.2
2017-Nov-10 09:30N 30°13' W 093°16'1 2.3
2017-Nov-10 09:01N 30°12' W 093°17'2 4.9
2017-Nov-10 08:30N 30°11' W 093°19'1 2.9
2017-Nov-10 08:01N 30°09' W 093°20'2 3.9
2017-Nov-10 07:30N 30°08' W 093°20'1 1.5
2017-Nov-10 07:00N 30°07' W 093°20'1 2.6
2017-Nov-10 06:30N 30°06' W 093°19'1 2.7
2017-Nov-10 06:00N 30°05' W 093°18'1 2.4
2017-Nov-10 05:30N 30°04' W 093°16'2 3.5
2017-Nov-10 05:01N 30°03' W 093°16'2 4.0
2017-Nov-10 04:30N 30°01' W 093°14'1 2.8
2017-Nov-10 04:00N 30°00' W 093°14'0 0.7
2017-Nov-10 03:31N 29°60' W 093°13'0 0.4
2017-Nov-10 03:01N 29°60' W 093°13'1 2.8
2017-Nov-10 02:31N 29°59' W 093°12'2 3.6
2017-Nov-10 02:00N 29°57' W 093°11'43 3.9
2017-Nov-09 14:50N 29°51' W 092°22'1 3.8
2017-Nov-09 14:29N 29°51' W 092°20'2 3.8
2017-Nov-09 14:01N 29°50' W 092°18'2 3.8
2017-Nov-09 13:31N 29°49' W 092°17'2 3.8
2017-Nov-09 13:00N 29°48' W 092°15'2 3.8
2017-Nov-09 12:31N 29°47' W 092°13'1 3.0
2017-Nov-09 12:01N 29°47' W 092°11'1 1.3
2017-Nov-09 11:31N 29°47' W 092°10'1 2.3
2017-Nov-09 11:01N 29°47' W 092°09'2 3.3
2017-Nov-09 10:31N 29°47' W 092°07'1 1.8
2017-Nov-09 10:01N 29°48' W 092°06'2 4.1
2017-Nov-09 09:31N 29°48' W 092°04'2 3.7
2017-Nov-09 09:00N 29°49' W 092°02'2 4.3
2017-Nov-09 08:30N 29°50' W 091°60'  
Track history (hours):
 
Tides and Currents Weather Stations Pressure Air Temp Water Temp Dewpoint Dewpoint Depression Visibility Wind Speed Wind Dir Waves Ship Positions

M/V MiSS Lillie

Owner: Louisiana Marine Operators LLC., Broussard, LA. More information available from US FCC via Universal Licensing System and Coast Guard Vessel Documentation Center.

Last reported at 2017-Nov-14 11:32 UTC. Time now 2017-Nov-22 12:48 UTC.
Position N 29°34' W 090°29'.
Warning: this ship's position is 8 days out of date.

Length 24 m; draft 3 m.

Type: Towing. MMSI: 367631680.

Date/timePositionNaut miles runAvg speedWind from/ knotsBaromVisibWave heightAir tempDewpointWater temp
2017-Nov-14 11:32N 29°34' W 090°29'0 5.8
2017-Nov-14 11:30N 29°34' W 090°29'2 4.5
2017-Nov-14 11:00N 29°34' W 090°31'3 5.6
2017-Nov-14 10:30N 29°34' W 090°34'2 3.2
2017-Nov-14 10:00N 29°35' W 090°36'3 5.5
2017-Nov-14 09:30N 29°36' W 090°39'3 5.7
2017-Nov-14 09:01N 29°37' W 090°42'2 4.9
2017-Nov-14 08:31N 29°34' W 090°43'2 4.4
2017-Nov-14 08:00N 29°33' W 090°45'2 4.7
2017-Nov-14 07:30N 29°32' W 090°48'129 3.4
2017-Nov-12 17:38N 29°59' W 093°13'1 5.5
2017-Nov-12 17:27N 30°00' W 093°14'2 3.8
2017-Nov-12 16:59N 30°02' W 093°15'1 1.5
2017-Nov-12 16:30N 30°02' W 093°15'2 4.2
2017-Nov-12 15:59N 30°04' W 093°16'2 3.8
2017-Nov-12 15:29N 30°05' W 093°18'1 1.7
2017-Nov-12 14:59N 30°06' W 093°18'0 0.0
2017-Nov-12 14:27N 30°06' W 093°18'0 0.2
2017-Nov-12 13:55N 30°06' W 093°18'1 2.8
2017-Nov-12 13:27N 30°06' W 093°20'3 6.6
2017-Nov-12 12:59N 30°09' W 093°20'4 6.7
2017-Nov-12 12:27N 30°12' W 093°17'2 2.8
2017-Nov-12 11:53N 30°13' W 093°16'1 0.0
2017-Nov-10 16:23N 30°13' W 093°15'1 2.5
2017-Nov-10 16:00N 30°12' W 093°16'2 4.6
2017-Nov-10 15:30N 30°12' W 093°19'1 1.3
2017-Nov-10 15:01N 30°12' W 093°19'0 0.2
2017-Nov-10 14:30N 30°12' W 093°19'0 0.1
2017-Nov-10 14:00N 30°12' W 093°19'0 0.5
2017-Nov-10 13:30N 30°12' W 093°19'0 0.5
2017-Nov-10 13:00N 30°13' W 093°19'1 2.0
2017-Nov-10 12:30N 30°12' W 093°18'2 3.8
2017-Nov-10 12:00N 30°13' W 093°16'1 0.3
2017-Nov-10 09:44N 30°13' W 093°15'0 1.2
2017-Nov-10 09:30N 30°13' W 093°16'1 2.3
2017-Nov-10 09:01N 30°12' W 093°17'2 4.9
2017-Nov-10 08:30N 30°11' W 093°19'1 2.9
2017-Nov-10 08:01N 30°09' W 093°20'2 3.9
2017-Nov-10 07:30N 30°08' W 093°20'1 1.5
2017-Nov-10 07:00N 30°07' W 093°20'1 2.6
2017-Nov-10 06:30N 30°06' W 093°19'1 2.7
2017-Nov-10 06:00N 30°05' W 093°18'1 2.4
2017-Nov-10 05:30N 30°04' W 093°16'2 3.5
2017-Nov-10 05:01N 30°03' W 093°16'2 4.0
2017-Nov-10 04:30N 30°01' W 093°14'1 2.8
2017-Nov-10 04:00N 30°00' W 093°14'0 0.7
2017-Nov-10 03:31N 29°60' W 093°13'0 0.4
2017-Nov-10 03:01N 29°60' W 093°13'1 2.8
2017-Nov-10 02:31N 29°59' W 093°12'2 3.6
2017-Nov-10 02:00N 29°57' W 093°11'43 3.9
2017-Nov-09 14:50N 29°51' W 092°22'1 3.8
2017-Nov-09 14:29N 29°51' W 092°20'2 3.8
2017-Nov-09 14:01N 29°50' W 092°18'2 3.8
2017-Nov-09 13:31N 29°49' W 092°17'2 3.8
2017-Nov-09 13:00N 29°48' W 092°15'2 3.8
2017-Nov-09 12:31N 29°47' W 092°13'1 3.0
2017-Nov-09 12:01N 29°47' W 092°11'1 1.3
2017-Nov-09 11:31N 29°47' W 092°10'1 2.3
2017-Nov-09 11:01N 29°47' W 092°09'2 3.3
2017-Nov-09 10:31N 29°47' W 092°07'1 1.8
2017-Nov-09 10:01N 29°48' W 092°06'2 4.1
2017-Nov-09 09:31N 29°48' W 092°04'2 3.7
2017-Nov-09 09:00N 29°49' W 092°02'2 4.3
2017-Nov-09 08:30N 29°50' W 091°60'  

Dump ship's entire track history